createdAt,value
2019-04-10T00:00:53.305Z,0.00
2019-04-10T00:01:53.294Z,0.00
2019-04-10T00:02:53.597Z,0.00
2019-04-10T00:03:53.273Z,0.00
2019-04-10T00:04:53.640Z,0.00
2019-04-10T00:05:53.261Z,0.00
2019-04-10T00:06:55.374Z,0.00
2019-04-10T00:07:54.239Z,0.00
2019-04-10T00:08:53.218Z,0.00
2019-04-10T00:09:53.233Z,0.00
2019-04-10T00:10:54.259Z,0.00
2019-04-10T00:11:53.489Z,0.00
2019-04-10T00:12:54.121Z,0.00
2019-04-10T00:13:53.302Z,0.00
2019-04-10T00:14:53.153Z,0.00
2019-04-10T00:15:53.166Z,0.00
2019-04-10T00:16:54.253Z,0.00
2019-04-10T00:17:53.534Z,0.00
2019-04-10T00:18:53.991Z,0.00
2019-04-10T00:19:54.002Z,0.00
2019-04-10T00:20:53.211Z,0.00
2019-04-10T00:21:53.590Z,0.00
2019-04-10T00:22:53.066Z,0.00
2019-04-10T00:23:53.060Z,0.00
2019-04-10T00:24:53.045Z,0.00
2019-04-10T00:25:53.095Z,0.00
2019-04-10T00:26:53.028Z,0.00
2019-04-10T00:27:53.031Z,0.00
2019-04-10T00:28:53.889Z,0.00
2019-04-10T00:29:52.995Z,0.00
2019-04-10T00:30:53.593Z,0.00
2019-04-10T00:31:54.152Z,0.00
2019-04-10T00:32:52.952Z,0.00
2019-04-10T00:33:53.527Z,0.00
2019-04-10T00:34:53.935Z,0.00
2019-04-10T00:35:53.906Z,0.00
2019-04-10T00:36:53.336Z,0.00
2019-04-10T00:37:53.411Z,0.00
2019-04-10T00:38:53.891Z,0.00
2019-04-10T00:39:53.065Z,0.00
2019-04-10T00:40:52.872Z,0.00
2019-04-10T00:41:52.991Z,0.00
2019-04-10T00:42:53.753Z,0.00
2019-04-10T00:43:52.833Z,0.00
2019-04-10T00:44:52.840Z,0.00
2019-04-10T00:45:53.597Z,0.00
2019-04-10T00:46:52.846Z,0.00
2019-04-10T00:47:53.162Z,0.00
2019-04-10T00:48:52.777Z,0.00
2019-04-10T00:49:53.658Z,0.00
2019-04-10T00:50:53.002Z,0.00
2019-04-10T00:51:52.750Z,0.00
2019-04-10T00:52:52.750Z,0.00
2019-04-10T00:53:53.800Z,0.00
2019-04-10T00:54:52.722Z,0.00
2019-04-10T00:55:52.702Z,0.00
2019-04-10T00:56:52.833Z,0.00
2019-04-10T00:57:52.692Z,0.00
2019-04-10T00:58:53.229Z,0.00
2019-04-10T00:59:52.669Z,0.00
2019-04-10T01:00:52.684Z,0.00
2019-04-10T01:01:52.669Z,0.00
2019-04-10T01:02:53.333Z,0.00
2019-04-10T01:03:52.617Z,0.00
2019-04-10T01:04:52.982Z,0.00
2019-04-10T01:05:52.604Z,0.00
2019-04-10T01:06:52.587Z,0.00
2019-04-10T01:07:52.573Z,0.00
2019-04-10T01:08:59.300Z,0.00
2019-04-10T01:09:53.438Z,0.00
2019-04-10T01:10:52.628Z,0.00
2019-04-10T01:11:52.537Z,0.00
2019-04-10T01:12:52.520Z,0.00
2019-04-10T01:13:53.604Z,0.00
2019-04-10T01:14:52.501Z,0.00
2019-04-10T01:15:53.117Z,0.00
2019-04-10T01:16:52.605Z,0.00
2019-04-10T01:17:52.830Z,0.00
2019-04-10T01:18:53.271Z,0.00
2019-04-10T01:19:52.446Z,0.00
2019-04-10T01:20:53.528Z,0.00
2019-04-10T01:21:52.787Z,0.00
2019-04-10T01:22:52.412Z,0.00
2019-04-10T01:23:53.254Z,0.00
2019-04-10T01:24:52.393Z,0.00
2019-04-10T01:25:52.383Z,0.00
2019-04-10T01:26:52.401Z,0.00
2019-04-10T01:27:52.362Z,0.00
2019-04-10T01:28:54.047Z,0.00
2019-04-10T01:29:52.335Z,0.00
2019-04-10T01:30:52.813Z,0.00
2019-04-10T01:31:53.141Z,0.00
2019-04-10T01:32:52.391Z,0.00
2019-04-10T01:33:52.722Z,0.00
2019-04-10T01:34:52.296Z,0.00
2019-04-10T01:35:52.273Z,0.00
2019-04-10T01:36:52.400Z,0.00
2019-04-10T01:37:57.837Z,0.00
2019-04-10T01:38:53.781Z,0.00
2019-04-10T01:39:52.837Z,0.00
2019-04-10T01:40:53.131Z,0.00
2019-04-10T01:41:52.318Z,0.00
2019-04-10T01:43:02.458Z,0.00
2019-04-10T01:43:53.200Z,0.00
2019-04-10T01:44:53.113Z,0.00
2019-04-10T01:45:52.164Z,0.00
2019-04-10T01:46:52.916Z,0.00
2019-04-10T01:47:53.205Z,0.00
2019-04-10T01:48:53.257Z,0.00
2019-04-10T01:49:52.130Z,0.00
2019-04-10T01:50:52.878Z,0.00
2019-04-10T01:51:52.104Z,0.00
2019-04-10T01:52:52.088Z,0.00
2019-04-10T01:53:52.365Z,0.00
2019-04-10T01:54:52.066Z,0.00
2019-04-10T01:55:52.054Z,0.00
2019-04-10T01:56:52.186Z,0.00
2019-04-10T01:57:52.624Z,0.00
2019-04-10T01:58:52.021Z,0.00
2019-04-10T01:59:52.135Z,0.00
2019-04-10T02:00:52.147Z,0.00
2019-04-10T02:01:52.591Z,0.00
2019-04-10T02:02:51.978Z,0.00
2019-04-10T02:03:52.037Z,0.00
2019-04-10T02:04:53.717Z,0.00
2019-04-10T02:05:52.618Z,0.00
2019-04-10T02:06:51.933Z,0.00
2019-04-10T02:08:01.219Z,0.00
2019-04-10T02:08:52.947Z,0.00
2019-04-10T02:09:51.912Z,0.00
2019-04-10T02:10:52.235Z,0.00
2019-04-10T02:11:52.356Z,0.00
2019-04-10T02:12:52.686Z,0.00
2019-04-10T02:13:51.881Z,0.00
2019-04-10T02:14:52.294Z,0.00
2019-04-10T02:15:52.420Z,0.00
2019-04-10T02:16:51.827Z,0.00
2019-04-10T02:17:52.868Z,0.00
2019-04-10T02:18:52.035Z,0.00
2019-04-10T02:19:51.795Z,0.00
2019-04-10T02:20:51.790Z,0.00
2019-04-10T02:21:51.901Z,0.00
2019-04-10T02:22:51.978Z,0.00
2019-04-10T02:23:52.416Z,0.00
2019-04-10T02:24:51.753Z,0.00
2019-04-10T02:25:52.748Z,0.00
2019-04-10T02:26:52.011Z,0.00
2019-04-10T02:27:51.709Z,0.00
2019-04-10T02:28:51.702Z,0.00
2019-04-10T02:29:52.320Z,0.00
2019-04-10T02:30:51.928Z,0.00
2019-04-10T02:31:52.789Z,0.00
2019-04-10T02:32:52.854Z,0.00
2019-04-10T02:33:51.868Z,0.00
2019-04-10T02:34:53.145Z,0.00
2019-04-10T02:35:52.618Z,0.00
2019-04-10T02:36:52.896Z,0.00
2019-04-10T02:37:55.398Z,0.00
2019-04-10T02:39:04.629Z,0.00
2019-04-10T02:39:56.292Z,0.00
2019-04-10T02:40:52.997Z,0.00
2019-04-10T02:41:52.316Z,0.00
2019-04-10T02:42:51.547Z,0.00
2019-04-10T02:43:51.579Z,0.00
2019-04-10T02:44:52.171Z,0.00
2019-04-10T02:45:51.523Z,0.00
2019-04-10T02:46:51.968Z,0.00
2019-04-10T02:47:52.857Z,0.00
2019-04-10T02:48:51.972Z,0.00
2019-04-10T02:49:52.189Z,0.00
2019-04-10T02:50:51.468Z,0.00
2019-04-10T02:51:51.982Z,0.00
2019-04-10T02:52:51.436Z,0.00
2019-04-10T02:53:53.089Z,0.00
2019-04-10T02:54:51.436Z,0.00
2019-04-10T02:55:51.658Z,0.00
2019-04-10T02:56:52.664Z,0.00
2019-04-10T02:57:51.860Z,0.00
2019-04-10T02:58:51.679Z,0.00
2019-04-10T02:59:51.369Z,0.00
2019-04-10T03:00:52.564Z,0.00
2019-04-10T03:01:51.972Z,0.00
2019-04-10T03:02:52.044Z,0.00
2019-04-10T03:03:52.549Z,0.00
2019-04-10T03:04:53.180Z,0.00
2019-04-10T03:05:51.302Z,0.00
2019-04-10T03:06:51.641Z,0.00
2019-04-10T03:07:52.623Z,0.00
2019-04-10T03:09:07.254Z,0.00
2019-04-10T03:10:02.223Z,0.00
2019-04-10T03:10:58.966Z,0.00
2019-04-10T03:11:52.232Z,0.00
2019-04-10T03:12:52.609Z,0.00
2019-04-10T03:13:51.347Z,0.00
2019-04-10T03:14:52.186Z,0.00
2019-04-10T03:15:51.856Z,0.00
2019-04-10T03:16:51.476Z,0.00
2019-04-10T03:17:51.177Z,0.00
2019-04-10T03:18:51.162Z,0.00
2019-04-10T03:19:51.925Z,0.00
2019-04-10T03:20:51.151Z,0.00
2019-04-10T03:21:51.427Z,0.00
2019-04-10T03:22:51.420Z,0.00
2019-04-10T03:23:51.107Z,0.00
2019-04-10T03:24:51.094Z,0.00
2019-04-10T03:25:51.085Z,0.00
2019-04-10T03:26:52.147Z,0.00
2019-04-10T03:27:51.103Z,0.00
2019-04-10T03:28:51.486Z,0.00
2019-04-10T03:29:51.934Z,0.00
2019-04-10T03:30:51.026Z,0.00
2019-04-10T03:31:52.908Z,0.00
2019-04-10T03:32:55.833Z,0.00
2019-04-10T03:33:54.110Z,0.00
2019-04-10T03:34:51.263Z,0.00
2019-04-10T03:35:51.433Z,0.00
2019-04-10T03:36:51.765Z,0.00
2019-04-10T03:37:50.951Z,0.00
2019-04-10T03:38:59.578Z,0.00
2019-04-10T03:39:53.137Z,0.00
2019-04-10T03:40:51.447Z,0.00
2019-04-10T03:41:50.909Z,0.00
2019-04-10T03:42:50.896Z,0.00
2019-04-10T03:43:50.910Z,0.00
2019-04-10T03:44:51.401Z,0.00
2019-04-10T03:45:50.880Z,0.00
2019-04-10T03:46:50.994Z,4.00
2019-04-10T03:47:51.500Z,4.00
2019-04-10T03:48:51.524Z,0.00
2019-04-10T03:49:51.757Z,4.00
2019-04-10T03:50:50.807Z,4.00
2019-04-10T03:51:50.805Z,4.00
2019-04-10T03:52:51.772Z,4.00
2019-04-10T03:53:50.895Z,4.00
2019-04-10T03:54:50.783Z,4.00
2019-04-10T03:55:52.036Z,4.00
2019-04-10T03:56:51.007Z,8.00
2019-04-10T03:57:51.875Z,12.00
2019-04-10T03:58:51.634Z,12.00
2019-04-10T03:59:51.791Z,16.00
2019-04-10T04:00:50.728Z,20.00
2019-04-10T04:01:51.379Z,24.00
2019-04-10T04:02:51.615Z,28.00
2019-04-10T04:03:51.117Z,36.00
2019-04-10T04:04:50.675Z,40.00
2019-04-10T04:05:51.048Z,48.00
2019-04-10T04:06:50.648Z,56.00
2019-04-10T04:07:50.721Z,64.00
2019-04-10T04:09:01.732Z,76.00
2019-04-10T04:09:51.646Z,92.00
2019-04-10T04:10:51.259Z,104.00
2019-04-10T04:11:50.616Z,116.00
2019-04-10T04:12:50.975Z,136.00
2019-04-10T04:13:50.556Z,156.00
2019-04-10T04:14:50.739Z,172.00
2019-04-10T04:15:50.678Z,192.00
2019-04-10T04:16:51.229Z,216.00
2019-04-10T04:17:50.670Z,240.00
2019-04-10T04:18:51.234Z,264.00
2019-04-10T04:19:50.531Z,288.00
2019-04-10T04:20:51.019Z,320.00
2019-04-10T04:21:50.497Z,348.00
2019-04-10T04:22:50.470Z,384.00
2019-04-10T04:23:51.097Z,420.00
2019-04-10T04:24:50.435Z,456.00
2019-04-10T04:25:50.488Z,492.00
2019-04-10T04:26:50.806Z,532.00
2019-04-10T04:27:50.416Z,572.00
2019-04-10T04:28:51.540Z,608.00
2019-04-10T04:29:50.385Z,652.00
2019-04-10T04:30:52.334Z,688.00
2019-04-10T04:31:50.706Z,724.00
2019-04-10T04:32:50.531Z,764.00
2019-04-10T04:33:50.335Z,796.00
2019-04-10T04:34:50.366Z,836.00
2019-04-10T04:35:51.055Z,880.00
2019-04-10T04:36:51.408Z,924.00
2019-04-10T04:37:50.594Z,964.00
2019-04-10T04:38:51.405Z,1004.00
2019-04-10T04:39:50.268Z,1044.00
2019-04-10T04:40:51.306Z,1084.00
2019-04-10T04:41:50.252Z,1136.00
2019-04-10T04:42:51.358Z,1196.00
2019-04-10T04:43:50.291Z,1244.00
2019-04-10T04:44:50.222Z,1288.00
2019-04-10T04:45:50.718Z,1332.00
2019-04-10T04:46:50.614Z,1380.00
2019-04-10T04:47:50.406Z,1432.00
2019-04-10T04:48:50.207Z,1484.00
2019-04-10T04:49:50.305Z,1536.00
2019-04-10T04:50:50.145Z,1584.00
2019-04-10T04:51:50.589Z,1624.00
2019-04-10T04:52:50.135Z,1660.00
2019-04-10T04:53:50.499Z,1692.00
2019-04-10T04:54:50.110Z,1736.00
2019-04-10T04:55:51.290Z,1800.00
2019-04-10T04:56:50.488Z,1860.00
2019-04-10T04:57:50.252Z,1916.00
2019-04-10T04:58:50.064Z,1988.00
2019-04-10T04:59:50.476Z,2068.00
2019-04-10T05:00:50.797Z,2148.00
2019-04-10T05:01:50.030Z,2224.00
2019-04-10T05:02:50.018Z,2296.00
2019-04-10T05:03:50.540Z,2376.00
2019-04-10T05:04:49.991Z,2460.00
2019-04-10T05:05:50.143Z,2552.00
2019-04-10T05:06:50.160Z,2656.00
2019-04-10T05:07:59.259Z,2756.00
2019-04-10T05:08:50.949Z,2860.00
2019-04-10T05:09:50.429Z,2968.00
2019-04-10T05:10:49.947Z,3100.00
2019-04-10T05:11:50.967Z,3240.00
2019-04-10T05:12:49.908Z,3404.00
2019-04-10T05:13:50.911Z,3560.00
2019-04-10T05:14:49.881Z,3684.00
2019-04-10T05:15:49.883Z,3804.00
2019-04-10T05:16:50.047Z,3904.00
2019-04-10T05:17:49.851Z,4020.00
2019-04-10T05:18:50.155Z,4148.00
2019-04-10T05:19:50.345Z,4268.00
2019-04-10T05:20:50.852Z,4472.00
2019-04-10T05:21:49.906Z,4740.00
2019-04-10T05:22:52.069Z,4996.00
2019-04-10T05:23:49.789Z,5220.00
2019-04-10T05:24:49.787Z,5400.00
2019-04-10T05:25:49.885Z,5568.00
2019-04-10T05:26:49.762Z,5728.00
2019-04-10T05:27:49.742Z,5856.00
2019-04-10T05:28:50.742Z,5996.00
2019-04-10T05:29:50.569Z,6144.00
2019-04-10T05:30:50.591Z,6288.00
2019-04-10T05:31:49.709Z,6524.00
2019-04-10T05:32:49.693Z,6808.00
2019-04-10T05:33:49.680Z,7032.00
2019-04-10T05:34:50.403Z,7288.00
2019-04-10T05:35:50.761Z,7512.00
2019-04-10T05:36:49.648Z,7668.00
2019-04-10T05:37:49.916Z,7796.00
2019-04-10T05:38:50.977Z,8004.00
2019-04-10T05:39:51.946Z,8356.00
2019-04-10T05:40:50.627Z,9396.00
2019-04-10T05:41:50.381Z,11556.00
2019-04-10T05:42:49.572Z,12892.00
2019-04-10T05:43:49.577Z,11604.00
2019-04-10T05:44:50.173Z,10424.00
2019-04-10T05:45:50.596Z,9896.00
2019-04-10T05:46:49.533Z,10420.00
2019-04-10T05:47:50.640Z,10908.00
2019-04-10T05:48:50.487Z,10392.00
2019-04-10T05:49:49.501Z,10300.00
2019-04-10T05:50:56.659Z,10404.00
2019-04-10T05:51:50.478Z,10468.00
2019-04-10T05:52:49.694Z,10508.00
2019-04-10T05:53:52.228Z,11364.00
2019-04-10T05:54:49.462Z,13340.00
2019-04-10T05:55:49.450Z,12648.00
2019-04-10T05:56:50.414Z,10024.00
2019-04-10T05:57:49.413Z,9824.00
2019-04-10T05:58:49.397Z,9712.00
2019-04-10T05:59:49.405Z,9660.00
2019-04-10T06:00:49.898Z,9668.00
2019-04-10T06:01:50.500Z,9672.00
2019-04-10T06:02:50.305Z,9692.00
2019-04-10T06:03:49.348Z,9844.00
2019-04-10T06:04:49.655Z,10040.00
2019-04-10T06:05:49.319Z,10256.00
2019-04-10T06:06:49.521Z,10572.00
2019-04-10T06:07:49.571Z,11020.00
2019-04-10T06:08:49.294Z,11432.00
2019-04-10T06:09:55.925Z,11684.00
2019-04-10T06:10:50.266Z,11728.00
2019-04-10T06:11:49.253Z,11724.00
2019-04-10T06:12:49.266Z,11336.00
2019-04-10T06:13:49.246Z,11236.00
2019-04-10T06:14:50.409Z,11352.00
2019-04-10T06:15:49.211Z,11592.00
2019-04-10T06:16:49.205Z,12004.00
2019-04-10T06:17:49.187Z,12476.00
2019-04-10T06:18:49.349Z,12904.00
2019-04-10T06:19:49.169Z,13392.00
2019-04-10T06:20:49.416Z,13900.00
2019-04-10T06:21:50.308Z,14248.00
2019-04-10T06:22:49.131Z,14484.00
2019-04-10T06:23:49.850Z,15656.00
2019-04-10T06:24:49.114Z,14904.00
2019-04-10T06:25:49.871Z,15220.00
2019-04-10T06:26:50.105Z,15016.00
2019-04-10T06:27:49.083Z,14916.00
2019-04-10T06:28:49.066Z,15488.00
2019-04-10T06:29:49.054Z,15956.00
2019-04-10T06:30:50.071Z,15256.00
2019-04-10T06:31:49.362Z,15328.00
2019-04-10T06:32:49.028Z,15856.00
2019-04-10T06:33:49.010Z,16236.00
2019-04-10T06:34:50.108Z,17056.00
2019-04-10T06:35:49.039Z,21792.00
2019-04-10T06:36:49.430Z,24032.00
2019-04-10T06:37:48.975Z,31008.00
2019-04-10T06:38:48.970Z,17696.00
2019-04-10T06:39:49.112Z,17216.00
2019-04-10T06:40:48.938Z,16800.00
2019-04-10T06:41:48.945Z,16592.00
2019-04-10T06:42:52.239Z,16800.00
2019-04-10T06:43:49.663Z,16496.00
2019-04-10T06:44:48.894Z,17120.00
2019-04-10T06:45:48.877Z,26144.00
2019-04-10T06:46:48.867Z,25056.00
2019-04-10T06:47:48.869Z,27488.00
2019-04-10T06:48:49.817Z,21408.00
2019-04-10T06:49:48.833Z,35648.00
2019-04-10T06:50:48.844Z,38176.00
2019-04-10T06:51:49.390Z,19456.00
2019-04-10T06:52:49.294Z,18624.00
2019-04-10T06:53:59.928Z,18816.00
2019-04-10T06:54:49.777Z,19296.00
2019-04-10T06:55:48.945Z,22240.00
2019-04-10T06:56:48.877Z,21024.00
2019-04-10T06:57:55.840Z,23232.00
2019-04-10T06:58:49.920Z,21568.00
2019-04-10T06:59:48.728Z,21024.00
2019-04-10T07:00:52.970Z,21472.00
2019-04-10T07:01:53.333Z,24288.00
2019-04-10T07:02:50.565Z,20576.00
2019-04-10T07:03:56.579Z,21088.00
2019-04-10T07:04:54.292Z,21824.00
2019-04-10T07:06:02.456Z,27520.00
2019-04-10T07:06:58.091Z,23200.00
2019-04-10T07:07:53.780Z,24768.00
2019-04-10T07:08:50.910Z,24480.00
2019-04-10T07:09:49.577Z,24512.00
2019-04-10T07:10:55.364Z,24416.00
2019-04-10T07:11:53.486Z,24352.00
2019-04-10T07:12:49.577Z,24384.00
2019-04-10T07:13:49.120Z,24736.00
2019-04-10T07:14:50.794Z,26400.00
2019-04-10T07:15:49.653Z,53600.00
2019-04-10T07:16:48.616Z,44544.00
2019-04-10T07:17:49.246Z,40288.00
2019-04-10T07:18:49.434Z,37088.00
2019-04-10T07:19:49.307Z,41504.00
2019-04-10T07:20:48.967Z,34272.00
2019-04-10T07:21:49.155Z,39552.00
2019-04-10T07:22:49.674Z,29216.00
2019-04-10T07:23:49.028Z,28224.00
2019-04-10T07:24:48.486Z,28672.00
2019-04-10T07:25:48.489Z,27616.00
2019-04-10T07:26:50.531Z,28800.00
2019-04-10T07:27:48.415Z,36256.00
2019-04-10T07:28:50.085Z,38592.00
2019-04-10T07:29:50.782Z,45088.00
2019-04-10T07:30:48.399Z,37280.00
2019-04-10T07:31:48.803Z,41056.00
2019-04-10T07:32:49.185Z,41120.00
2019-04-10T07:33:50.393Z,44800.00
2019-04-10T07:34:48.723Z,38208.00
2019-04-10T07:35:48.320Z,56512.00
2019-04-10T07:36:48.321Z,35840.00
2019-04-10T07:37:52.702Z,31680.00
2019-04-10T07:38:48.916Z,30720.00
2019-04-10T07:39:48.904Z,36512.00
2019-04-10T07:40:49.129Z,30016.00
2019-04-10T07:41:49.265Z,31808.00
2019-04-10T07:42:48.655Z,30656.00
2019-04-10T07:43:53.584Z,30112.00
2019-04-10T07:44:49.223Z,32480.00
2019-04-10T07:45:48.216Z,32416.00
2019-04-10T07:46:48.823Z,51712.00
2019-04-10T07:47:48.345Z,64640.00
2019-04-10T07:48:48.187Z,31168.00
2019-04-10T07:49:48.368Z,29472.00
2019-04-10T07:50:48.558Z,29504.00
2019-04-10T07:51:49.139Z,29408.00
2019-04-10T07:52:48.151Z,29696.00
2019-04-10T07:53:49.153Z,29888.00
2019-04-10T07:54:48.247Z,30624.00
2019-04-10T07:56:00.376Z,30592.00
2019-04-10T07:56:49.407Z,30144.00
2019-04-10T07:57:49.985Z,29600.00
2019-04-10T07:58:48.294Z,28704.00
2019-04-10T07:59:48.053Z,28384.00
2019-04-10T08:00:49.507Z,29280.00
2019-04-10T08:01:48.025Z,28640.00
2019-04-10T08:02:49.057Z,28704.00
2019-04-10T08:03:48.019Z,29344.00
2019-04-10T08:04:48.034Z,29632.00
2019-04-10T08:05:48.213Z,29888.00
2019-04-10T08:06:47.993Z,30784.00
2019-04-10T08:07:47.960Z,32704.00
2019-04-10T08:08:49.145Z,33024.00
2019-04-10T08:09:47.942Z,33184.00
2019-04-10T08:10:48.793Z,36288.00
2019-04-10T08:11:48.884Z,31808.00
2019-04-10T08:13:41.734Z,31168.00
2019-04-10T08:14:42.040Z,31200.00
2019-04-10T08:15:41.654Z,32448.00
2019-04-10T08:16:41.643Z,31712.00
2019-04-10T08:17:41.636Z,31200.00
2019-04-10T08:18:41.624Z,32128.00
2019-04-10T08:19:41.626Z,34176.00
2019-04-10T08:20:42.498Z,49888.00
2019-04-10T08:21:42.350Z,34688.00
2019-04-10T08:22:42.689Z,33120.00
2019-04-10T08:23:42.381Z,31808.00
2019-04-10T08:24:42.618Z,31328.00
2019-04-10T08:25:41.568Z,31744.00
2019-04-10T08:26:41.543Z,31968.00
2019-04-10T08:27:41.801Z,31424.00
2019-04-10T08:28:41.516Z,31200.00
2019-04-10T08:29:42.766Z,31296.00
2019-04-10T08:30:41.970Z,30144.00
2019-04-10T08:31:41.489Z,30016.00
2019-04-10T08:32:53.290Z,30368.00
2019-04-10T08:33:42.465Z,31680.00
2019-04-10T08:34:42.137Z,31552.00
2019-04-10T08:35:41.942Z,31488.00
2019-04-10T08:36:41.581Z,31616.00
2019-04-10T08:37:41.463Z,31136.00
2019-04-10T08:38:42.116Z,32416.00
2019-04-10T08:39:45.568Z,31872.00
2019-04-10T08:40:42.377Z,30432.00
2019-04-10T08:41:41.638Z,30368.00
2019-04-10T08:42:44.593Z,30688.00
2019-04-10T08:43:41.688Z,31040.00
2019-04-10T08:44:42.394Z,31328.00
2019-04-10T08:45:47.177Z,31840.00
2019-04-10T08:46:42.341Z,32448.00
2019-04-10T08:47:42.164Z,32224.00
2019-04-10T08:48:41.327Z,32192.00
2019-04-10T08:49:41.283Z,32448.00
2019-04-10T08:50:41.929Z,32832.00
2019-04-10T08:51:41.619Z,33216.00
2019-04-10T08:52:41.289Z,33760.00
2019-04-10T08:53:42.392Z,34688.00
2019-04-10T08:54:41.229Z,35776.00
2019-04-10T08:55:42.118Z,36512.00
2019-04-10T08:56:41.208Z,37952.00
2019-04-10T08:57:41.737Z,39776.00
2019-04-10T08:58:41.314Z,44576.00
2019-04-10T08:59:41.168Z,44288.00
2019-04-10T09:00:41.159Z,48000.00
2019-04-10T09:01:41.769Z,42752.00
2019-04-10T09:02:42.244Z,43424.00
2019-04-10T09:03:41.342Z,56512.00
2019-04-10T09:04:41.337Z,57568.00
2019-04-10T09:05:41.106Z,70816.00
2019-04-10T09:06:41.820Z,95104.00
2019-04-10T09:07:41.221Z,71904.00
2019-04-10T09:08:42.125Z,54528.00
2019-04-10T09:09:41.553Z,56640.00
2019-04-10T09:10:41.056Z,56448.00
2019-04-10T09:11:41.284Z,63808.00
2019-04-10T09:12:41.185Z,87232.00
2019-04-10T09:13:41.057Z,69760.00
2019-04-10T09:14:41.314Z,52096.00
2019-04-10T09:15:40.995Z,49472.00
2019-04-10T09:16:40.989Z,49952.00
2019-04-10T09:17:41.763Z,69536.00
2019-04-10T09:18:41.242Z,69120.00
2019-04-10T09:19:40.961Z,74112.00
2019-04-10T09:20:40.939Z,46784.00
2019-04-10T09:21:41.698Z,45920.00
2019-04-10T09:22:57.925Z,48128.00
2019-04-10T09:23:48.236Z,54816.00
2019-04-10T09:24:42.502Z,52352.00
2019-04-10T09:25:41.565Z,59296.00
2019-04-10T09:26:40.880Z,66816.00
2019-04-10T09:27:42.784Z,57472.00
2019-04-10T09:28:40.852Z,53856.00
2019-04-10T09:29:40.846Z,60448.00
2019-04-10T09:30:40.926Z,67840.00
2019-04-10T09:31:41.730Z,75872.00
2019-04-10T09:32:40.813Z,87584.00
2019-04-10T09:33:40.803Z,61344.00
2019-04-10T09:34:40.789Z,54848.00
2019-04-10T09:35:40.785Z,65888.00
2019-04-10T09:36:41.728Z,68064.00
2019-04-10T09:37:42.007Z,88928.00
2019-04-10T09:38:41.057Z,61792.00
2019-04-10T09:39:41.292Z,71488.00
2019-04-10T09:40:40.725Z,53088.00
2019-04-10T09:41:41.647Z,53408.00
2019-04-10T09:42:41.775Z,81888.00
2019-04-10T09:43:40.693Z,81472.00
2019-04-10T09:44:40.675Z,81920.00
2019-04-10T09:45:41.644Z,81760.00
2019-04-10T09:46:40.887Z,48256.00
2019-04-10T09:47:41.683Z,36608.00
2019-04-10T09:48:40.654Z,70848.00
2019-04-10T09:49:45.834Z,61568.00
2019-04-10T09:50:41.885Z,64256.00
2019-04-10T09:51:40.611Z,48544.00
2019-04-10T09:52:40.758Z,63936.00
2019-04-10T09:53:41.274Z,52384.00
2019-04-10T09:54:40.566Z,34336.00
2019-04-10T09:55:40.582Z,21280.00
2019-04-10T09:56:40.583Z,20768.00
2019-04-10T09:57:40.915Z,20640.00
2019-04-10T09:58:40.637Z,20960.00
2019-04-10T09:59:41.247Z,21888.00
2019-04-10T10:00:40.503Z,22912.00
2019-04-10T10:01:40.508Z,23264.00
2019-04-10T10:02:40.518Z,23552.00
2019-04-10T10:03:40.473Z,24000.00
2019-04-10T10:04:40.461Z,34112.00
2019-04-10T10:05:40.445Z,48544.00
2019-04-10T10:06:40.441Z,48352.00
2019-04-10T10:07:41.060Z,33856.00
2019-04-10T10:08:41.558Z,29440.00
2019-04-10T10:09:41.000Z,29088.00
2019-04-10T10:10:41.542Z,20832.00
2019-04-10T10:11:40.385Z,19936.00
2019-04-10T10:12:40.782Z,20736.00
2019-04-10T10:13:41.425Z,22592.00
2019-04-10T10:14:40.358Z,26784.00
2019-04-10T10:15:41.111Z,28608.00
2019-04-10T10:16:40.331Z,29440.00
2019-04-10T10:17:41.208Z,38912.00
2019-04-10T10:18:41.469Z,26016.00
2019-04-10T10:19:40.718Z,24064.00
2019-04-10T10:20:40.285Z,23168.00
2019-04-10T10:21:40.780Z,24256.00
2019-04-10T10:22:41.146Z,22592.00
2019-04-10T10:23:40.256Z,21920.00
2019-04-10T10:24:40.475Z,21952.00
2019-04-10T10:25:40.232Z,22592.00
2019-04-10T10:26:43.232Z,24128.00
2019-04-10T10:27:40.772Z,26112.00
2019-04-10T10:28:40.198Z,39360.00
2019-04-10T10:29:40.213Z,95200.00
2019-04-10T10:30:40.177Z,91872.00
2019-04-10T10:31:40.325Z,60960.00
2019-04-10T10:32:42.137Z,32320.00
2019-04-10T10:33:40.139Z,28192.00
2019-04-10T10:34:40.803Z,28896.00
2019-04-10T10:35:41.138Z,28416.00
2019-04-10T10:36:43.433Z,27392.00
2019-04-10T10:37:41.112Z,25376.00
2019-04-10T10:38:40.114Z,24352.00
2019-04-10T10:39:41.142Z,26048.00
2019-04-10T10:40:40.071Z,46080.00
2019-04-10T10:41:40.540Z,71040.00
2019-04-10T10:42:41.378Z,34240.00
2019-04-10T10:43:40.446Z,66080.00
2019-04-10T10:44:40.448Z,33216.00
2019-04-10T10:45:40.022Z,59552.00
2019-04-10T10:46:39.995Z,39040.00
2019-04-10T10:47:40.509Z,42048.00
2019-04-10T10:48:40.027Z,61184.00
2019-04-10T10:49:40.226Z,41984.00
2019-04-10T10:50:39.954Z,36608.00
2019-04-10T10:51:39.958Z,38688.00
2019-04-10T10:52:39.949Z,55360.00
2019-04-10T10:53:40.748Z,69184.00
2019-04-10T10:54:41.017Z,52512.00
2019-04-10T10:55:40.023Z,103136.00
2019-04-10T10:56:39.904Z,102400.00
2019-04-10T10:57:39.873Z,98496.00
2019-04-10T10:58:39.864Z,40640.00
2019-04-10T10:59:39.876Z,44864.00
2019-04-10T11:00:41.045Z,103552.00
2019-04-10T11:01:40.015Z,105376.00
2019-04-10T11:02:39.823Z,45408.00
2019-04-10T11:03:40.493Z,103584.00
2019-04-10T11:04:39.911Z,103200.00
2019-04-10T11:05:39.793Z,102176.00
2019-04-10T11:06:51.559Z,84960.00
2019-04-10T11:07:40.771Z,91200.00
2019-04-10T11:08:39.910Z,89760.00
2019-04-10T11:09:40.211Z,99008.00
2019-04-10T11:10:41.071Z,100992.00
2019-04-10T11:11:40.906Z,100608.00
2019-04-10T11:12:39.724Z,71872.00
2019-04-10T11:13:39.703Z,46656.00
2019-04-10T11:14:39.690Z,44480.00
2019-04-10T11:15:42.742Z,54816.00
2019-04-10T11:16:41.085Z,42688.00
2019-04-10T11:17:40.433Z,99872.00
2019-04-10T11:18:40.360Z,98400.00
2019-04-10T11:19:39.631Z,52320.00
2019-04-10T11:20:39.642Z,32352.00
2019-04-10T11:21:40.496Z,31360.00
2019-04-10T11:22:39.867Z,31232.00
2019-04-10T11:23:39.591Z,31200.00
2019-04-10T11:24:40.889Z,31680.00
2019-04-10T11:25:40.446Z,32768.00
2019-04-10T11:26:40.029Z,33760.00
2019-04-10T11:27:39.553Z,32064.00
2019-04-10T11:28:39.549Z,35648.00
2019-04-10T11:29:39.522Z,45760.00
2019-04-10T11:30:41.150Z,28288.00
2019-04-10T11:31:39.696Z,26336.00
2019-04-10T11:32:39.493Z,26080.00
2019-04-10T11:33:39.839Z,25856.00
2019-04-10T11:34:40.714Z,25888.00
2019-04-10T11:35:39.719Z,26464.00
2019-04-10T11:36:40.045Z,27008.00
2019-04-10T11:37:44.460Z,27456.00
2019-04-10T11:38:42.146Z,29472.00
2019-04-10T11:39:43.289Z,59616.00
2019-04-10T11:40:41.417Z,90464.00
2019-04-10T11:41:39.892Z,94112.00
2019-04-10T11:42:40.174Z,93152.00
2019-04-10T11:43:39.379Z,40416.00
2019-04-10T11:44:41.717Z,22816.00
2019-04-10T11:45:44.103Z,22016.00
2019-04-10T11:46:41.885Z,24096.00
2019-04-10T11:47:39.330Z,21344.00
2019-04-10T11:48:41.856Z,20192.00
2019-04-10T11:49:44.309Z,20160.00
2019-04-10T11:50:39.296Z,21952.00
2019-04-10T11:51:39.347Z,80288.00
2019-04-10T11:52:45.252Z,27392.00
2019-04-10T11:53:44.478Z,88928.00
2019-04-10T11:54:41.539Z,94048.00
2019-04-10T11:55:46.030Z,91648.00
2019-04-10T11:56:40.231Z,88480.00
2019-04-10T11:57:39.218Z,90048.00
2019-04-10T11:58:48.898Z,91648.00
2019-04-10T11:59:41.055Z,89152.00
2019-04-10T12:00:47.639Z,85376.00
2019-04-10T12:01:40.179Z,82528.00
2019-04-10T12:02:40.265Z,84448.00
2019-04-10T12:03:44.231Z,87456.00
2019-04-10T12:04:50.684Z,87616.00
2019-04-10T12:05:41.296Z,87872.00
2019-04-10T12:06:40.361Z,84864.00
2019-04-10T12:09:03.680Z,79264.00
2019-04-10T12:11:40.377Z,63328.00
2019-04-10T12:12:39.050Z,81920.00
2019-04-10T12:13:39.041Z,56288.00
2019-04-10T12:14:39.626Z,53408.00
2019-04-10T12:15:39.035Z,25856.00
2019-04-10T12:16:39.058Z,89824.00
2019-04-10T12:17:40.153Z,88032.00
2019-04-10T12:18:38.987Z,34368.00
2019-04-10T12:19:38.976Z,31104.00
2019-04-10T12:20:38.968Z,88992.00